Latest Weather Observations for Bendigo

IDV60801

Issued at 3:02 am EDT Friday 30 January 2015 (issued every 30 minutes, with the page automatically refreshed every 10 minutes)

About weather observations | Map of weather stations | Latest weather observations for VIC | Other Formats
Station Details ID: 081123 Name: BENDIGO AIRPORT Lat: -36.74 Lon: 144.33 Height: 208.0 m
Data from the previous 72 hours. | See also: Recent months at Bendigo
Date/Time
EDT
Temp
°C
App
Temp
°C
Dew
Point
Rel
Hum
%
Delta-T
°C
Wind Press
QNH
hPa
Press
MSL
hPa
Rain
since 9 am
mm
Dir
 
Spd
km/h
Gust
km/h
Spd
kts
Gust
kts
30/03:00am 12.4 9.7 7.3 71 2.5 SSE 11 19 6 10 1015.2 1014.4 0.0
30/02:30am 13.0 9.9 7.2 68 2.8 SSE 13 19 7 10 1015.5 1014.7 0.0
30/02:00am 13.5 10.1 7.7 68 2.9 SE 15 26 8 14 1015.7 1014.9 0.0
30/01:30am 13.5 11.0 8.1 70 2.7 SSE 11 19 6 10 1015.8 1015.0 0.0
30/01:00am 13.9 9.7 8.3 69 2.8 SSE 20 30 11 16 1015.9 1015.1 0.0
30/12:30am 14.4 10.5 8.6 68 3.0 SE 19 33 10 18 1016.1 1015.3 0.0
30/12:00am 14.6 8.9 8.5 67 3.1 SSE 28 39 15 21 1016.2 1015.4 0.0
 
Date/Time
EDT
Temp
°C
App
Temp
°C
Dew
Point
Rel
Hum
%
Delta-T
°C
Wind Press
QNH
hPa
Press
MSL
hPa
Rain
since 9 am
mm
Dir
 
Spd
km/h
Gust
km/h
Spd
kts
Gust
kts
29/11:30pm 15.1 11.1 8.3 64 3.5 SSE 19 28 10 15 1016.3 1015.5 0.0
29/11:00pm 15.1 11.7 9.0 67 3.1 SSE 17 30 9 16 1016.5 1015.7 0.0
29/10:30pm 15.4 12.0 9.1 66 3.3 SSE 17 28 9 15 1016.6 1015.8 0.0
29/10:00pm 15.8 11.0 9.0 64 3.5 SSE 24 39 13 21 1016.4 1015.6 0.0
29/09:30pm 16.2 11.4 8.7 61 3.9 SSE 24 35 13 19 1016.3 1015.5 0.0
29/09:00pm 16.6 11.3 8.6 59 4.1 SSE 26 37 14 20 1016.0 1015.2 0.0
29/08:30pm 17.4 12.1 8.5 56 4.6 SSE 26 39 14 21 1015.8 1015.0 0.0
29/08:00pm 18.3 11.6 8.0 51 5.3 SSE 33 52 18 28 1015.4 1014.6 0.0
29/07:30pm 19.4 13.3 8.1 48 5.9 SSE 30 48 16 26 1015.3 1014.5 0.0
29/07:29pm 19.4 13.2 7.8 47 6.0 SSE 30 48 16 26 1015.4 1014.6 0.0
29/07:00pm 20.1 13.3 7.8 45 6.4 SSE 33 50 18 27 1015.1 1014.3 0.0
29/06:54pm 20.5 13.9 7.8 44 6.6 SSE 32 50 17 27 1015.0 1014.2 0.0
29/06:30pm 21.1 15.2 7.3 41 7.2 SSE 28 43 15 23 1014.8 1014.0 0.0
29/06:00pm 22.0 15.6 7.0 38 7.8 SE 30 48 16 26 1014.9 1014.1 0.0
29/05:40pm 21.7 15.5 6.0 36 8.0 SSE 28 46 15 25 1014.9 1014.1 0.0
29/05:30pm 22.2 16.4 6.4 36 8.1 SSE 26 41 14 22 1014.9 1014.1 0.0
29/05:02pm 23.5 17.3 6.3 33 8.9 SSE 28 48 15 26 1015.1 1014.3 0.0
29/05:00pm 23.1 16.5 6.0 33 8.8 SSE 30 43 16 23 1015.1 1014.3 0.0
29/04:30pm 23.0 16.6 5.4 32 8.9 SSE 28 44 15 24 1015.3 1014.5 0.0
29/04:00pm 23.0 16.5 4.5 30 9.2 SSE 28 48 15 26 1015.7 1014.9 0.0
29/03:59pm 22.8 16.2 4.3 30 9.2 SSE 28 48 15 26 1015.7 1014.9 0.0
29/03:30pm 23.0 16.1 4.5 30 9.2 SSE 30 41 16 22 1015.9 1015.1 0.0
29/03:00pm 23.4 17.1 3.9 28 9.6 SSE 26 41 14 22 1016.1 1015.3 0.0
29/02:30pm 23.0 16.7 3.5 28 9.5 SSE 26 43 14 23 1016.4 1015.6 0.0
29/02:00pm 22.9 16.4 4.9 31 9.0 S 28 46 15 25 1016.7 1015.9 0.0
29/01:43pm 22.4 15.9 4.9 32 8.8 SSE 28 46 15 25 1016.6 1015.8 0.0
29/01:30pm 22.8 17.0 4.3 30 9.2 SSE 24 39 13 21 1017.0 1016.1 0.0
29/01:00pm 21.8 15.8 3.5 30 8.9 SSE 24 41 13 22 1017.5 1016.7 0.0
29/12:35pm 21.7 15.0 3.9 31 8.7 SSE 28 46 15 25 1017.6 1016.8 0.0
29/12:30pm 21.3 15.1 4.4 33 8.3 SSE 26 44 14 24 1017.8 1017.0 0.0
29/12:00pm 20.7 14.6 4.7 35 7.9 SSE 26 43 14 23 1018.1 1017.3 0.0
29/11:30am 20.5 13.4 3.7 33 8.1 SE 30 43 16 23 1018.2 1017.4 0.0
29/11:00am 19.4 12.2 5.1 39 7.0 SE 32 46 17 25 1018.4 1017.6 0.0
29/10:35am 19.3 12.9 5.0 39 7.0 SE 28 46 15 25 1018.5 1017.7 0.0
29/10:30am 19.0 11.7 4.7 39 7.0 SE 32 46 17 25 1018.5 1017.7 0.0
29/10:08am 18.7 11.6 5.5 42 6.5 SSE 32 52 17 28 1018.4 1017.6 0.0
29/10:00am 18.3 11.1 4.8 41 6.5 SSE 32 44 17 24 1018.5 1017.7 0.0
29/09:30am 17.3 11.4 5.9 47 5.6 SE 26 43 14 23 1018.6 1017.8 0.0
29/09:28am 17.5 11.3 6.1 47 5.6 SE 28 46 15 25 1018.7 1017.9 0.0
29/08:30am 15.8 11.2 6.5 54 4.6 SE 20 41 11 22 1018.5 1017.7 0.0
29/08:00am 14.8 10.3 6.9 59 3.9 SE 20 35 11 19 1018.2 1017.4 0.0
29/07:30am 13.7 9.7 6.8 63 3.4 SE 17 26 9 14 1017.8 1017.0 0.0
29/07:00am 12.9 8.9 6.7 66 3.0 SE 17 26 9 14 1017.5 1016.7 0.0
29/06:30am 12.4 7.8 6.7 68 2.8 SSE 20 39 11 21 1017.2 1016.3 0.0
29/06:00am 12.6 8.0 6.4 66 3.0 SSE 20 35 11 19 1017.0 1016.1 0.0
29/05:30am 12.8 8.2 6.4 65 3.1 SE 20 32 11 17 1016.6 1015.8 0.0
29/05:00am 12.6 8.0 6.6 67 2.9 SE 20 33 11 18 1016.4 1015.6 0.0
29/04:30am 12.7 8.3 6.5 66 3.0 SE 19 26 10 14 1016.5 1015.7 0.0
29/04:00am 12.9 9.2 6.5 65 3.1 SE 15 24 8 13 1016.6 1015.8 0.0
29/03:30am 13.1 10.2 6.5 64 3.2 SE 11 22 6 12 1016.9 1016.0 0.0
29/03:00am 13.5 10.3 6.8 64 3.3 SE 13 22 7 12 1017.2 1016.3 0.0
29/02:30am 14.0 10.1 7.1 63 3.4 SSE 17 28 9 15 1017.2 1016.3 0.0
29/02:00am 14.5 10.1 7.3 62 3.6 SSE 20 30 11 16 1017.3 1016.4 0.0
29/01:30am 14.8 10.6 7.4 61 3.7 SSE 19 33 10 18 1017.7 1016.9 0.0
29/01:00am 15.4 10.2 7.2 58 4.1 SSE 24 35 13 19 1017.5 1016.7 0.0
29/12:30am 15.7 11.3 7.2 57 4.2 SSE 20 35 11 19 1017.6 1016.8 0.0
29/12:00am 16.3 12.4 7.3 55 4.5 SSE 17 30 9 16 1017.5 1016.7 0.0
 
Date/Time
EDT
Temp
°C
App
Temp
°C
Dew
Point
Rel
Hum
%
Delta-T
°C
Wind Press
QNH
hPa
Press
MSL
hPa
Rain
since 9 am
mm
Dir
 
Spd
km/h
Gust
km/h
Spd
kts
Gust
kts
28/11:30pm 16.9 12.1 7.3 53 4.8 SSE 22 37 12 20 1017.4 1016.6 0.0
28/11:00pm 17.1 12.8 8.0 55 4.7 SSE 20 32 11 17 1017.4 1016.6 0.0
28/10:30pm 17.4 12.5 8.3 55 4.7 SSE 24 35 13 19 1017.1 1016.2 0.0
28/10:00pm 18.0 13.1 8.6 54 4.9 SSE 24 41 13 22 1016.7 1015.9 0.0
28/09:30pm 18.7 13.9 8.7 52 5.2 SSE 24 37 13 20 1016.4 1015.6 0.0
28/09:00pm 19.6 14.0 8.6 49 5.8 SSE 28 46 15 25 1016.0 1015.2 0.0
28/08:56pm 19.7 14.0 8.4 48 5.9 SSE 28 46 15 25 1015.9 1015.1 0.0
28/08:30pm 20.2 14.2 8.5 47 6.2 SSE 30 44 16 24 1015.7 1014.9 0.0
28/08:03pm 21.5 15.4 8.4 43 7.0 SSE 30 48 16 26 1015.2 1014.4 0.0
28/08:00pm 21.6 15.9 8.5 43 7.0 SSE 28 41 15 22 1015.2 1014.4 0.0
28/07:31pm 22.6 16.6 8.7 41 7.5 SSE 30 48 16 26 1014.7 1013.9 0.0
28/07:30pm 22.6 16.1 8.3 40 7.6 SSE 32 48 17 26 1014.7 1013.9 0.0
28/07:00pm 24.1 18.5 8.9 38 8.3 SSE 28 46 15 25 1014.5 1013.7 0.0
28/06:39pm 23.7 17.1 7.8 36 8.5 SSE 32 50 17 27 1014.3 1013.5 0.0
28/06:30pm 24.2 17.6 7.8 35 8.7 SSE 32 48 17 26 1014.3 1013.5 0.0
28/06:12pm 24.4 17.6 7.1 33 9.1 SSE 32 50 17 27 1014.1 1013.3 0.0
28/06:00pm 24.7 17.4 7.4 33 9.2 SSE 35 50 19 27 1014.2 1013.4 0.0
28/05:55pm 24.6 18.1 6.4 31 9.5 SSE 30 48 16 26 1014.2 1013.4 0.0
28/05:30pm 25.4 19.7 6.6 30 9.9 SSE 26 43 14 23 1014.3 1013.5 0.0
28/05:07pm 26.2 20.0 6.3 28 10.5 SE 28 46 15 25 1014.4 1013.6 0.0
28/05:00pm 25.5 19.2 5.7 28 10.2 SE 28 41 15 22 1014.4 1013.6 0.0
28/04:40pm 26.4 20.1 5.9 27 10.7 SE 28 48 15 26 1014.3 1013.5 0.0
28/04:30pm 26.0 20.9 6.1 28 10.4 SE 22 39 12 21 1014.3 1013.5 0.0
28/04:00pm 26.0 20.2 6.1 28 10.4 SSE 26 44 14 24 1014.4 1013.6 0.0
28/03:30pm 27.2 22.2 8.1 30 10.4 SSE 24 37 13 20 1014.5 1013.7 0.0
28/03:00pm 25.3 19.7 7.0 31 9.7 SSE 26 35 14 19 1014.8 1014.0 0.0
28/02:30pm 25.2 20.9 7.8 33 9.3 S 20 32 11 17 1014.9 1014.1 0.0
28/02:00pm 25.2 21.2 8.2 34 9.2 S 19 28 10 15 1015.2 1014.4 0.0
28/01:30pm 23.5 19.6 9.5 41 7.7 SSW 20 28 11 15 1015.4 1014.6 0.0
28/01:00pm 23.4 19.7 10.1 43 7.3 SSE 20 30 11 16 1015.6 1014.8 0.0
28/12:30pm 23.1 19.8 9.5 42 7.4 S 17 26 9 14 1015.7 1014.9 0.0
28/12:00pm 22.0 18.4 9.9 46 6.6 SSE 19 28 10 15 1015.9 1015.1 0.0
28/11:30am 21.9 17.8 10.1 47 6.5 SSE 22 30 12 16 1015.9 1015.1 0.0
28/11:00am 20.7 16.2 8.4 45 6.5 SE 22 32 12 17 1016.2 1015.4 0.0
28/10:30am 19.0 13.2 7.8 48 5.8 SE 28 39 15 21 1016.2 1015.4 0.0
28/10:00am 18.3 13.7 8.0 51 5.3 SE 22 33 12 18 1016.2 1015.4 0.0
28/09:30am 16.9 11.7 7.3 53 4.8 SSE 24 35 13 19 1016.1 1015.3 0.0
28/09:00am 16.5 11.0 7.4 55 4.6 SE 26 39 14 21 1016.0 1015.2 0.0
28/08:41am 16.4 10.5 7.6 56 4.5 SE 28 46 15 25 1015.8 1015.0 0.0
28/08:30am 16.6 10.8 8.1 57 4.4 SE 28 44 15 24 1015.7 1014.9 0.0
28/08:00am 15.2 10.1 7.5 60 3.9 SSE 24 39 13 21 1015.4 1014.6 0.0
28/07:30am 14.1 8.9 7.2 63 3.4 SE 24 32 13 17 1015.0 1014.2 0.0
28/07:00am 13.5 8.3 7.1 65 3.1 SE 24 37 13 20 1014.7 1013.9 0.0
28/06:30am 13.3 8.4 6.9 65 3.1 SSE 22 30 12 16 1014.4 1013.6 0.0
28/06:00am 13.1 7.8 6.9 66 3.0 SSE 24 39 13 21 1014.3 1013.5 0.0
28/05:30am 12.9 7.3 7.1 68 2.8 SSE 26 37 14 20 1014.0 1013.2 0.0
28/05:00am 12.8 8.1 7.7 71 2.5 SSE 22 32 12 17 1013.9 1013.1 0.0
28/04:30am 12.8 8.5 7.7 71 2.5 SSE 20 28 11 15 1014.0 1013.2 0.0
28/04:00am 12.6 8.2 7.5 71 2.5 SSE 20 33 11 18 1013.9 1013.1 0.0
28/03:30am 12.7 8.4 7.8 72 2.4 SSE 20 28 11 15 1014.0 1013.2 0.0
28/03:00am 12.6 8.5 7.9 73 2.3 SSE 19 26 10 14 1014.3 1013.5 0.0
28/02:30am 12.6 9.6 7.7 72 2.4 SE 13 20 7 11 1014.6 1013.8 0.0
28/02:00am 12.9 9.9 7.6 70 2.6 SE 13 24 7 13 1015.0 1014.2 0.0
28/01:30am 13.2 9.4 7.4 68 2.9 SE 17 32 9 17 1014.9 1014.1 0.0
28/01:00am 13.5 8.3 7.3 66 3.1 SSE 24 41 13 22 1014.7 1013.9 0.0
28/12:50am 13.6 7.7 7.4 66 3.1 SSE 28 46 15 25 1014.5 1013.7 0.0
28/12:30am 13.6 8.4 7.2 65 3.2 SSE 24 39 13 21 1014.6 1013.8 0.0
28/12:00am 13.8 7.4 6.9 63 3.4 SSE 30 43 16 23 1015.0 1014.2 0.0
 
Date/Time
EDT
Temp
°C
App
Temp
°C
Dew
Point
Rel
Hum
%
Delta-T
°C
Wind Press
QNH
hPa
Press
MSL
hPa
Rain
since 9 am
mm
Dir
 
Spd
km/h
Gust
km/h
Spd
kts
Gust
kts
27/11:30pm 13.8 7.0 6.7 62 3.5 SSE 32 46 17 25 1015.0 1014.2 0.0
27/11:00pm 14.0 7.9 6.6 61 3.6 SSE 28 41 15 22 1015.0 1014.2 0.0
27/10:30pm 13.8 9.1 6.2 60 3.7 SSE 20 28 11 15 1015.1 1014.3 0.0
27/10:00pm 14.2 9.5 6.1 58 3.9 S 20 32 11 17 1014.9 1014.1 0.0
27/09:30pm 14.7 10.1 6.3 57 4.1 S 20 35 11 19 1014.7 1013.9 0.0
27/09:00pm 15.2 8.7 6.5 56 4.3 S 30 43 16 23 1014.4 1013.6 0.0
27/08:42pm 15.6 9.1 6.6 55 4.4 S 30 48 16 26 1014.2 1013.4 0.0
27/08:30pm 15.9 9.0 6.6 54 4.6 S 32 44 17 24 1014.1 1013.3 0.0
27/08:00pm 16.9 10.9 7.0 52 5.0 S 28 48 15 26 1013.9 1013.1 0.0
27/07:51pm 17.3 10.9 7.1 51 5.1 S 30 48 16 26 1013.8 1013.0 0.0
27/07:30pm 18.1 11.1 6.9 48 5.7 S 33 50 18 27 1013.5 1012.7 0.0
27/07:12pm 18.6 12.5 6.8 46 6.0 S 28 46 15 25 1013.1 1012.2 0.0
27/07:00pm 18.9 12.1 6.7 45 6.2 S 32 44 17 24 1013.0 1012.1 0.0
27/06:30pm 19.0 12.1 7.1 46 6.1 S 33 54 18 29 1012.7 1011.8 0.0
27/06:14pm 20.1 13.3 7.1 43 6.7 S 32 50 17 27 1012.6 1011.7 0.0
27/06:00pm 20.2 13.6 7.6 44 6.5 S 32 46 17 25 1012.7 1011.8 0.0
27/05:30pm 21.3 14.6 7.2 40 7.3 S 32 46 17 25 1012.6 1011.7 0.0
27/05:07pm 22.2 15.8 6.8 37 8.0 S 30 48 16 26 1012.6 1011.7 0.0
27/05:00pm 21.9 14.9 6.2 36 8.0 S 32 46 17 25 1012.6 1011.7 0.0
27/04:30pm 22.9 16.2 7.4 37 8.1 S 32 43 17 23 1012.6 1011.7 0.0
27/04:00pm 23.2 17.3 7.3 36 8.4 SSE 28 41 15 22 1012.6 1011.7 0.0
27/03:30pm 22.8 17.4 7.8 38 7.9 SSE 26 41 14 22 1012.8 1011.9 0.0
27/03:00pm 22.9 17.4 7.4 37 8.1 SSE 26 43 14 23 1012.9 1012.0 0.0
27/02:30pm 23.1 17.6 7.6 37 8.2 S 26 39 14 21 1013.1 1012.2 0.0
27/02:00pm 22.9 18.2 7.8 38 8.0 SSE 22 46 12 25 1013.3 1012.5 0.0
27/01:30pm 23.0 17.2 7.9 38 8.0 S 28 39 15 21 1013.5 1012.7 0.0
27/01:00pm 22.7 18.4 6.9 36 8.2 SSE 19 28 10 15 1013.8 1013.0 0.0
27/12:30pm 22.8 18.0 7.4 37 8.1 S 22 35 12 19 1013.8 1013.0 0.0
27/12:00pm 22.1 17.7 7.5 39 7.6 SSE 20 37 11 20 1014.2 1013.4 0.0
27/11:30am 21.2 16.9 7.8 42 7.0 S 20 28 11 15 1014.4 1013.6 0.0
27/11:00am 20.4 15.5 7.1 42 6.8 S 22 33 12 18 1014.6 1013.8 0.0
27/10:30am 20.0 15.0 8.0 46 6.3 SE 24 33 13 18 1014.6 1013.8 0.0
27/10:00am 18.1 12.4 6.6 47 5.8 SSE 26 39 14 21 1014.7 1013.9 0.0
27/09:30am 17.2 11.0 6.1 48 5.5 SE 28 39 15 21 1014.8 1014.0 0.0
27/09:00am 16.0 10.6 6.2 52 4.8 SE 24 35 13 19 1014.9 1014.1 0.0
27/08:30am 14.9 9.2 6.5 57 4.1 SE 26 39 14 21 1014.7 1013.9 0.0
27/08:00am 13.7 8.2 5.8 59 3.8 SSE 24 33 13 18 1014.5 1013.7 0.0
27/07:30am 12.7 7.9 5.4 61 3.4 SSE 20 32 11 17 1014.2 1013.4 0.0
27/07:00am 12.1 7.2 5.0 62 3.3 SSE 20 28 11 15 1014.1 1013.3 0.0
27/06:30am 11.8 6.9 5.2 64 3.1 SSE 20 26 11 14 1014.0 1013.2 0.0
27/06:00am 11.7 6.8 5.3 65 3.0 SSE 20 28 11 15 1013.7 1012.9 0.0
27/05:30am 11.6 7.0 5.5 66 2.9 SSE 19 26 10 14 1013.7 1012.9 0.0
27/05:00am 11.7 7.5 5.6 66 2.9 SSE 17 22 9 12 1013.8 1013.0 0.0
27/04:30am 11.8 7.9 5.4 65 3.0 SSE 15 20 8 11 1013.8 1013.0 0.0
27/04:00am 12.0 7.7 5.4 64 3.1 SSE 17 22 9 12 1013.9 1013.1 0.0
27/03:30am 12.3 7.7 5.5 63 3.2 SSE 19 28 10 15 1014.1 1013.3 0.0

Other Formats:

Comma delimited format used in spreadsheet applications
http://www.bom.gov.au/fwo/IDV60801/IDV60801.94855.axf

JavaScript Object Notation format (JSON) in row-major order
http://www.bom.gov.au/fwo/IDV60801/IDV60801.94855.json